Terminal Aerodrome Forecast
Issued by NWS

Home | Current Version | Previous Version | Text Only | Print | Product List | Glossary On
Versions: 1 2 3 4 5 6 7 8 9 10 11 12 13 14 15 16 17 18 19 20 21 22 23 24 25 26 27 28 29 30 31
000
FTUS43 KGLD 051137
TAFMCK
TAF
KMCK 051137Z 0512/0612 22006KT P6SM -SN BKN050
     FM051400 27010KT P6SM BKN090
     FM051800 31013G23KT P6SM SCT060 SCT150
     FM060000 28007KT P6SM FEW200=

USA.gov is the U.S. government's official web portal to all federal, state and local government web resources and services.